createdAt,value
2018-03-17T00:00:25.734Z,60.22
2018-03-17T00:02:55.178Z,60.71
2018-03-17T00:05:24.440Z,60.09
2018-03-17T00:07:53.482Z,59.59
2018-03-17T00:10:22.403Z,60.16
2018-03-17T00:12:51.333Z,59.57
2018-03-17T00:15:20.713Z,60.17
2018-03-17T00:17:49.945Z,59.93
2018-03-17T00:20:19.165Z,60.75
2018-03-17T00:22:48.190Z,60.78
2018-03-17T00:25:17.784Z,60.73
2018-03-17T00:27:46.855Z,60.63
2018-03-17T00:30:15.971Z,60.44
2018-03-17T00:32:45.037Z,60.69
2018-03-17T00:35:16.041Z,60.74
2018-03-17T00:37:45.239Z,60.43
2018-03-17T00:40:14.554Z,60.38
2018-03-17T00:42:44.647Z,60.39
2018-03-17T00:45:14.314Z,61.08
2018-03-17T00:47:43.328Z,61.10
2018-03-17T00:50:15.255Z,60.74
2018-03-17T00:52:44.950Z,60.75
2018-03-17T00:55:14.577Z,60.92
2018-03-17T00:57:43.517Z,60.98
2018-03-17T01:00:12.288Z,60.25
2018-03-17T01:02:41.599Z,59.64
2018-03-17T01:05:10.515Z,60.92
2018-03-17T01:07:40.187Z,60.75
2018-03-17T01:10:09.459Z,60.48
2018-03-17T01:12:38.452Z,60.79
2018-03-17T01:15:07.766Z,61.69
2018-03-17T01:17:37.194Z,60.78
2018-03-17T01:20:07.416Z,60.58
2018-03-17T01:22:37.786Z,60.60
2018-03-17T01:25:07.728Z,60.20
2018-03-17T01:27:37.253Z,60.19
2018-03-17T01:30:06.703Z,60.37
2018-03-17T01:32:38.312Z,60.50
2018-03-17T01:35:07.421Z,60.73
2018-03-17T01:37:36.582Z,61.48
2018-03-17T01:40:07.175Z,61.88
2018-03-17T01:42:38.440Z,61.54
2018-03-17T01:45:08.043Z,61.26
2018-03-17T01:47:38.364Z,61.26
2018-03-17T01:50:07.215Z,61.90
2018-03-17T01:52:39.747Z,61.37
2018-03-17T01:55:09.144Z,61.11
2018-03-17T01:57:40.029Z,60.94
2018-03-17T02:00:12.556Z,61.37
2018-03-17T02:02:42.600Z,61.53
2018-03-17T02:05:13.575Z,61.34
2018-03-17T02:07:42.831Z,61.49
2018-03-17T02:10:13.361Z,61.10
2018-03-17T02:12:42.279Z,61.08
2018-03-17T02:15:13.476Z,61.26
2018-03-17T02:17:45.765Z,61.44
2018-03-17T02:20:19.046Z,61.99
2018-03-17T02:22:50.418Z,61.45
2018-03-17T02:25:20.459Z,61.18
2018-03-17T02:27:58.491Z,61.27
2018-03-17T02:30:29.431Z,60.92
2018-03-17T02:32:58.606Z,60.59
2018-03-17T02:35:30.443Z,61.30
2018-03-17T02:38:00.658Z,61.38
2018-03-17T02:40:30.405Z,61.34
2018-03-17T02:43:01.800Z,61.05
2018-03-17T02:45:31.577Z,60.59
2018-03-17T02:48:07.123Z,60.83
2018-03-17T02:50:40.140Z,61.85
2018-03-17T02:53:12.875Z,61.14
2018-03-17T02:55:44.044Z,61.76
2018-03-17T02:58:14.908Z,61.86
2018-03-17T03:00:45.817Z,62.03
2018-03-17T03:03:18.691Z,62.29
2018-03-17T03:05:48.412Z,62.00
2018-03-17T03:08:18.466Z,61.94
2018-03-17T03:10:50.777Z,61.77
2018-03-17T03:13:21.319Z,62.00
2018-03-17T03:15:50.409Z,61.67
2018-03-17T03:18:19.415Z,61.33
2018-03-17T03:20:49.241Z,61.32
2018-03-17T03:23:18.745Z,61.44
2018-03-17T03:25:50.662Z,61.09
2018-03-17T03:28:20.512Z,61.34
2018-03-17T03:30:51.239Z,61.87
2018-03-17T03:33:24.742Z,61.25
2018-03-17T03:35:56.561Z,61.07
2018-03-17T03:38:25.667Z,60.63
2018-03-17T03:40:56.429Z,60.65
2018-03-17T03:43:28.755Z,60.84
2018-03-17T03:45:58.197Z,61.09
2018-03-17T03:48:27.761Z,60.75
2018-03-17T03:50:57.028Z,61.14
2018-03-17T03:53:26.601Z,61.08
2018-03-17T03:55:59.202Z,61.07
2018-03-17T03:58:31.452Z,61.23
2018-03-17T04:01:00.834Z,60.77
2018-03-17T04:03:32.816Z,60.54
2018-03-17T04:06:02.532Z,60.25
2018-03-17T04:08:35.215Z,60.40
2018-03-17T04:11:10.220Z,60.38
2018-03-17T04:13:43.114Z,60.09
2018-03-17T04:16:12.490Z,59.93
2018-03-17T04:18:41.723Z,61.65
2018-03-17T04:21:11.301Z,60.91
2018-03-17T04:23:43.215Z,60.38
2018-03-17T04:26:13.120Z,60.82
2018-03-17T04:28:42.406Z,60.48
2018-03-17T04:31:17.133Z,61.30
2018-03-17T04:33:46.089Z,60.76
2018-03-17T04:36:15.506Z,60.76
2018-03-17T04:38:45.670Z,60.15
2018-03-17T04:41:18.315Z,60.26
2018-03-17T04:43:47.742Z,61.19
2018-03-17T04:46:17.250Z,61.24
2018-03-17T04:48:47.567Z,62.78
2018-03-17T04:51:20.200Z,61.85
2018-03-17T04:53:49.346Z,61.26
2018-03-17T04:56:19.096Z,61.04
2018-03-17T04:58:49.711Z,60.80
2018-03-17T05:01:23.707Z,60.99
2018-03-17T05:03:53.090Z,60.62
2018-03-17T05:06:24.457Z,60.77
2018-03-17T05:08:55.282Z,60.67
2018-03-17T05:11:28.105Z,60.74
2018-03-17T05:13:59.173Z,61.50
2018-03-17T05:16:30.110Z,61.29
2018-03-17T05:19:01.430Z,61.46
2018-03-17T05:21:30.587Z,60.97
2018-03-17T05:23:59.953Z,60.45
2018-03-17T05:26:29.160Z,61.92
2018-03-17T05:29:01.216Z,61.45
2018-03-17T05:31:30.490Z,60.80
2018-03-17T05:34:01.077Z,60.28
2018-03-17T05:36:30.785Z,60.04
2018-03-17T05:38:59.856Z,59.63
2018-03-17T05:41:30.607Z,59.98
2018-03-17T05:44:00.105Z,59.45
2018-03-17T05:46:34.990Z,58.84
2018-03-17T05:49:04.468Z,58.79
2018-03-17T05:51:33.939Z,58.61
2018-03-17T05:54:08.479Z,58.33
2018-03-17T05:56:38.513Z,58.55
2018-03-17T05:59:08.343Z,58.83
2018-03-17T06:01:41.629Z,58.71
2018-03-17T06:04:11.027Z,58.46
2018-03-17T06:06:42.608Z,58.45
2018-03-17T06:09:12.181Z,59.10
2018-03-17T06:11:41.849Z,58.56
2018-03-17T06:14:22.813Z,58.72
2018-03-17T06:16:53.848Z,58.62
2018-03-17T06:19:23.310Z,59.96
2018-03-17T06:21:52.375Z,59.63
2018-03-17T06:24:21.796Z,59.93
2018-03-17T06:26:51.432Z,59.34
2018-03-17T06:29:21.576Z,58.83
2018-03-17T06:31:50.763Z,58.60
2018-03-17T06:34:21.174Z,59.06
2018-03-17T06:36:54.764Z,58.03
2018-03-17T06:39:25.834Z,57.59
2018-03-17T06:41:57.493Z,57.16
2018-03-17T06:44:27.770Z,57.24
2018-03-17T06:46:57.136Z,57.25
2018-03-17T06:49:27.745Z,56.77
2018-03-17T06:51:57.266Z,56.99
2018-03-17T06:54:26.663Z,56.86
2018-03-17T06:56:57.844Z,56.52
2018-03-17T06:59:27.971Z,56.17
2018-03-17T07:01:57.892Z,56.73
2018-03-17T07:04:27.378Z,56.28
2018-03-17T07:06:56.753Z,56.75
2018-03-17T07:09:26.716Z,56.21
2018-03-17T07:11:57.141Z,56.60
2018-03-17T07:14:28.237Z,56.36
2018-03-17T07:17:01.807Z,56.02
2018-03-17T07:19:32.448Z,55.80
2018-03-17T07:22:04.825Z,55.85
2018-03-17T07:24:35.360Z,55.57
2018-03-17T07:27:07.328Z,55.34
2018-03-17T07:29:38.523Z,55.45
2018-03-17T07:32:08.442Z,55.33
2018-03-17T07:34:38.932Z,54.88
2018-03-17T07:37:08.953Z,54.87
2018-03-17T07:39:39.739Z,55.09
2018-03-17T07:42:09.950Z,54.64
2018-03-17T07:44:40.060Z,54.29
2018-03-17T07:47:09.157Z,55.11
2018-03-17T07:49:38.543Z,55.58
2018-03-17T07:52:08.407Z,55.14
2018-03-17T07:54:41.330Z,54.65
2018-03-17T07:57:10.613Z,54.78
2018-03-17T07:59:39.834Z,55.52
2018-03-17T08:02:09.652Z,54.76
2018-03-17T08:04:40.206Z,54.57
2018-03-17T08:07:10.362Z,54.71
2018-03-17T08:09:42.417Z,55.00
2018-03-17T08:12:11.725Z,55.57
2018-03-17T08:14:42.696Z,55.38
2018-03-17T08:17:15.895Z,55.04
2018-03-17T08:19:45.358Z,54.97
2018-03-17T08:22:16.698Z,54.94
2018-03-17T08:24:46.335Z,55.01
2018-03-17T08:27:15.393Z,55.58
2018-03-17T08:29:44.591Z,55.25
2018-03-17T08:32:14.440Z,55.08
2018-03-17T08:34:43.550Z,54.51
2018-03-17T08:37:12.897Z,55.58
2018-03-17T08:39:42.818Z,54.61
2018-03-17T08:42:12.439Z,54.36
2018-03-17T08:44:41.399Z,53.95
2018-03-17T08:47:11.007Z,54.07
2018-03-17T08:49:40.017Z,52.85
2018-03-17T08:52:09.238Z,52.10
2018-03-17T08:54:38.378Z,52.19
2018-03-17T08:57:07.856Z,52.31
2018-03-17T08:59:38.227Z,51.51
2018-03-17T09:02:08.103Z,51.27
2018-03-17T09:04:37.311Z,51.66
2018-03-17T09:07:07.906Z,51.52
2018-03-17T09:09:38.347Z,51.10
2018-03-17T09:12:07.866Z,51.16
2018-03-17T09:14:37.867Z,51.72
2018-03-17T09:17:07.180Z,51.44
2018-03-17T09:19:39.316Z,51.22
2018-03-17T09:22:09.040Z,50.76
2018-03-17T09:24:38.645Z,51.36
2018-03-17T09:27:08.356Z,51.41
2018-03-17T09:29:39.946Z,51.43
2018-03-17T09:32:08.735Z,51.45
2018-03-17T09:34:37.955Z,50.96
2018-03-17T09:37:06.762Z,51.12
2018-03-17T09:39:36.113Z,50.71
2018-03-17T09:42:05.945Z,50.23
2018-03-17T09:44:38.137Z,49.71
2018-03-17T09:47:07.355Z,49.44
2018-03-17T09:49:36.637Z,49.60
2018-03-17T09:52:05.688Z,48.80
2018-03-17T09:54:35.819Z,48.12
2018-03-17T09:57:05.236Z,48.23
2018-03-17T09:59:34.693Z,48.46
2018-03-17T10:02:05.964Z,47.83
2018-03-17T10:04:34.837Z,47.96
2018-03-17T10:07:04.796Z,47.95
2018-03-17T10:09:33.797Z,47.52
2018-03-17T10:12:04.555Z,47.23
2018-03-17T10:14:33.570Z,46.89
2018-03-17T10:17:02.932Z,47.12
2018-03-17T10:19:32.267Z,47.29
2018-03-17T10:22:03.453Z,47.17
2018-03-17T10:24:32.230Z,46.96
2018-03-17T10:27:02.555Z,46.40
2018-03-17T10:29:31.915Z,46.46
2018-03-17T10:32:02.622Z,46.68
2018-03-17T10:34:31.799Z,45.57
2018-03-17T10:37:01.376Z,44.96
2018-03-17T10:39:30.559Z,44.52
2018-03-17T10:41:59.397Z,43.94
2018-03-17T10:48:03.444Z,44.62
2018-03-17T10:50:36.407Z,44.87
2018-03-17T10:53:05.710Z,45.33
2018-03-17T10:55:35.297Z,45.50
2018-03-17T10:58:05.591Z,53.39
2018-03-17T11:00:35.222Z,51.39
2018-03-17T11:03:05.218Z,46.28
2018-03-17T11:05:34.965Z,45.90
2018-03-17T11:08:04.315Z,47.18
2018-03-17T11:10:36.531Z,46.29
2018-03-17T11:13:06.038Z,44.65
2018-03-17T11:15:36.000Z,45.39
2018-03-17T11:18:04.848Z,44.43
